createdAt,value
2022-09-18T00:01:33.022Z,97358.00
2022-09-18T00:04:04.438Z,97354.00
2022-09-18T00:06:35.477Z,97351.00
2022-09-18T00:09:05.866Z,97356.00
2022-09-18T00:11:38.123Z,97360.00
2022-09-18T00:14:08.219Z,97353.00
2022-09-18T00:16:35.560Z,97343.00
2022-09-18T00:19:03.315Z,97348.00
2022-09-18T00:21:31.892Z,97354.00
2022-09-18T00:24:01.426Z,97348.00
2022-09-18T00:26:29.869Z,97359.00
2022-09-18T00:28:58.419Z,97349.00
2022-09-18T00:31:32.580Z,97349.00
2022-09-18T00:34:03.058Z,97359.00
2022-09-18T00:36:30.955Z,97344.00
2022-09-18T00:38:59.322Z,97349.00
2022-09-18T00:41:34.964Z,97336.00
2022-09-18T00:44:31.781Z,97335.00
2022-09-18T00:47:22.634Z,97341.00
2022-09-18T00:49:57.218Z,97341.00
2022-09-18T00:52:31.690Z,97350.00
2022-09-18T00:55:11.466Z,97353.00
2022-09-18T00:57:46.557Z,97349.00
2022-09-18T01:00:14.818Z,97344.00
2022-09-18T01:02:44.536Z,97341.00
2022-09-18T01:05:14.847Z,97354.00
2022-09-18T01:08:30.915Z,97341.00
2022-09-18T01:11:30.507Z,97348.00
2022-09-18T01:14:17.564Z,97347.00
2022-09-18T01:17:17.461Z,97345.00
2022-09-18T01:20:05.607Z,97352.00
2022-09-18T01:23:03.091Z,97353.00
2022-09-18T01:25:59.989Z,97339.00
2022-09-18T01:28:48.633Z,97343.00
2022-09-18T01:31:39.127Z,97333.00
2022-09-18T01:34:23.598Z,97352.00
2022-09-18T01:37:04.604Z,97334.00
2022-09-18T01:39:58.389Z,97341.00
2022-09-18T01:42:29.260Z,97343.00
2022-09-18T01:45:02.068Z,97343.00
2022-09-18T01:47:38.247Z,97344.00
2022-09-18T01:50:09.174Z,97344.00
2022-09-18T01:52:56.538Z,97342.00
2022-09-18T01:55:29.337Z,97345.00
2022-09-18T01:58:08.953Z,97349.00
2022-09-18T02:00:46.602Z,97346.00
2022-09-18T02:03:30.136Z,97333.00
2022-09-18T02:06:10.224Z,97347.00
2022-09-18T02:08:56.790Z,97347.00
2022-09-18T02:11:25.191Z,97338.00
2022-09-18T02:14:05.472Z,97331.00
2022-09-18T02:17:00.313Z,97329.00
2022-09-18T02:20:10.147Z,97335.00
2022-09-18T02:22:38.975Z,97328.00
2022-09-18T02:25:09.919Z,97323.00
2022-09-18T02:27:42.459Z,97323.00
2022-09-18T02:30:11.015Z,97330.00
2022-09-18T02:32:39.959Z,97325.00
2022-09-18T02:35:11.001Z,97333.00
2022-09-18T02:38:09.115Z,97327.00
2022-09-18T02:40:53.443Z,97321.00
2022-09-18T02:43:57.284Z,97326.00
2022-09-18T02:47:05.569Z,97302.00
2022-09-18T02:49:53.143Z,97317.00
2022-09-18T02:52:51.759Z,97301.00
2022-09-18T02:55:39.846Z,97317.00
2022-09-18T02:58:17.750Z,97335.00
2022-09-18T03:00:50.920Z,97321.00
2022-09-18T03:03:30.406Z,97314.00
2022-09-18T03:06:01.857Z,97328.00
2022-09-18T03:08:31.009Z,97307.00
2022-09-18T03:10:58.032Z,97309.00
2022-09-18T03:13:27.092Z,97308.00
2022-09-18T03:15:55.895Z,97299.00
2022-09-18T03:18:23.702Z,97310.00
2022-09-18T03:20:50.691Z,97312.00
2022-09-18T03:23:17.706Z,97298.00
2022-09-18T03:25:50.620Z,97283.00
2022-09-18T03:28:18.847Z,97299.00
2022-09-18T03:30:46.047Z,97298.00
2022-09-18T03:33:13.712Z,97302.00
2022-09-18T03:35:43.737Z,97301.00
2022-09-18T03:38:10.893Z,97312.00
2022-09-18T03:40:38.490Z,97302.00
2022-09-18T03:43:06.393Z,97283.00
2022-09-18T03:45:33.301Z,97297.00
2022-09-18T03:48:01.962Z,97308.00
2022-09-18T03:50:29.232Z,97307.00
2022-09-18T03:52:56.668Z,97293.00
2022-09-18T03:55:43.082Z,97299.00
2022-09-18T03:58:42.592Z,97305.00
2022-09-18T04:01:15.483Z,97304.00
2022-09-18T04:04:02.602Z,97284.00
2022-09-18T04:06:52.396Z,97285.00
2022-09-18T04:09:38.174Z,97296.00
2022-09-18T04:12:05.562Z,97296.00
2022-09-18T04:14:32.643Z,97297.00
2022-09-18T04:17:00.280Z,97317.00
2022-09-18T04:19:27.160Z,97298.00
2022-09-18T04:21:54.147Z,97287.00
2022-09-18T04:24:22.056Z,97294.00
2022-09-18T04:26:50.022Z,97291.00
2022-09-18T04:29:19.580Z,97294.00
2022-09-18T04:31:49.107Z,97293.00
2022-09-18T04:34:17.466Z,97313.00
2022-09-18T04:36:44.506Z,97286.00
2022-09-18T04:39:11.497Z,97304.00
2022-09-18T04:41:38.772Z,97296.00
2022-09-18T04:44:05.898Z,97285.00
2022-09-18T04:46:33.663Z,97296.00
2022-09-18T04:49:01.786Z,97296.00
2022-09-18T04:51:30.039Z,97302.00
2022-09-18T04:53:56.872Z,97295.00
2022-09-18T04:56:24.413Z,97286.00
2022-09-18T04:58:52.695Z,97296.00
2022-09-18T05:01:19.830Z,97290.00
2022-09-18T05:03:46.791Z,97284.00
2022-09-18T05:06:22.255Z,97291.00
2022-09-18T05:08:49.348Z,97299.00
2022-09-18T05:11:16.191Z,97290.00
2022-09-18T05:13:43.372Z,97288.00
2022-09-18T05:16:15.097Z,97284.00
2022-09-18T05:18:45.675Z,97299.00
2022-09-18T05:21:12.663Z,97278.00
2022-09-18T05:23:40.151Z,97296.00
2022-09-18T05:26:07.095Z,97296.00
2022-09-18T05:28:34.427Z,97289.00
2022-09-18T05:31:02.057Z,97292.00
2022-09-18T05:33:38.748Z,97305.00
2022-09-18T05:36:06.059Z,97295.00
2022-09-18T05:38:34.555Z,97294.00
2022-09-18T05:41:03.972Z,97305.00
2022-09-18T05:43:30.960Z,97309.00
2022-09-18T05:46:00.700Z,97298.00
2022-09-18T05:48:38.664Z,97324.00
2022-09-18T05:51:06.959Z,97322.00
2022-09-18T05:53:34.335Z,97322.00
2022-09-18T05:56:10.708Z,97325.00
2022-09-18T05:58:37.962Z,97320.00
2022-09-18T06:01:05.171Z,97318.00
2022-09-18T06:03:51.038Z,97318.00
2022-09-18T06:06:21.439Z,97311.00
2022-09-18T06:08:49.315Z,97321.00
2022-09-18T06:11:16.282Z,97320.00
2022-09-18T06:13:44.360Z,97321.00
2022-09-18T06:16:13.046Z,97308.00
2022-09-18T06:18:51.219Z,97317.00
2022-09-18T06:21:20.182Z,97325.00
2022-09-18T06:23:47.065Z,97315.00
2022-09-18T06:26:24.995Z,97306.00
2022-09-18T06:28:51.900Z,97326.00
2022-09-18T06:31:18.828Z,97322.00
2022-09-18T06:34:03.805Z,97313.00
2022-09-18T06:36:30.757Z,97317.00
2022-09-18T06:39:04.985Z,97324.00
2022-09-18T06:41:32.825Z,97323.00
2022-09-18T06:43:59.679Z,97331.00
2022-09-18T06:46:39.669Z,97331.00
2022-09-18T06:49:23.626Z,97320.00
2022-09-18T06:51:50.711Z,97322.00
2022-09-18T06:54:17.993Z,97329.00
2022-09-18T06:56:47.771Z,97301.00
2022-09-18T06:59:16.307Z,97316.00
2022-09-18T07:01:43.622Z,97317.00
2022-09-18T07:04:18.426Z,97328.00
2022-09-18T07:06:46.764Z,97313.00
2022-09-18T07:09:15.114Z,97318.00
2022-09-18T07:11:54.111Z,97308.00
2022-09-18T07:14:28.159Z,97315.00
2022-09-18T07:17:01.853Z,97317.00
2022-09-18T07:19:29.018Z,97317.00
2022-09-18T07:21:55.904Z,97323.00
2022-09-18T07:24:25.088Z,97322.00
2022-09-18T07:26:52.112Z,97311.00
2022-09-18T07:29:19.106Z,97312.00
2022-09-18T07:31:46.094Z,97324.00
2022-09-18T07:34:13.592Z,97312.00
2022-09-18T07:36:41.420Z,97318.00
2022-09-18T07:39:08.382Z,97313.00
2022-09-18T07:41:55.495Z,97310.00
2022-09-18T07:44:22.440Z,97318.00
2022-09-18T07:46:50.941Z,97308.00
2022-09-18T07:49:18.207Z,97308.00
2022-09-18T07:51:46.303Z,97295.00
2022-09-18T07:54:14.892Z,97300.00
2022-09-18T07:57:02.420Z,97296.00
2022-09-18T07:59:37.211Z,97315.00
2022-09-18T08:02:06.126Z,97303.00
2022-09-18T08:04:34.610Z,97314.00
2022-09-18T08:07:31.009Z,97317.00
2022-09-18T08:10:10.971Z,97319.00
2022-09-18T08:12:54.516Z,97316.00
2022-09-18T08:15:36.579Z,97297.00
2022-09-18T08:18:04.115Z,97306.00
2022-09-18T08:20:49.437Z,97313.00
2022-09-18T08:23:27.395Z,97303.00
2022-09-18T08:25:54.525Z,97314.00
2022-09-18T08:28:23.193Z,97321.00
2022-09-18T08:30:57.437Z,97318.00
2022-09-18T08:33:24.842Z,97312.00
2022-09-18T08:35:52.209Z,97310.00
2022-09-18T08:38:34.232Z,97328.00
2022-09-18T08:41:52.643Z,97323.00
2022-09-18T08:44:28.905Z,97321.00
2022-09-18T08:47:38.437Z,97308.00
2022-09-18T08:50:16.727Z,97305.00
2022-09-18T08:52:53.324Z,97301.00
2022-09-18T08:56:01.351Z,97309.00
2022-09-18T08:59:04.169Z,97300.00
2022-09-18T09:02:37.801Z,97305.00
2022-09-18T09:05:18.179Z,97297.00
2022-09-18T09:08:22.294Z,97306.00
2022-09-18T09:10:55.361Z,97318.00
2022-09-18T09:13:38.018Z,97322.00
2022-09-18T09:17:03.735Z,97318.00
2022-09-18T09:20:24.380Z,97317.00
2022-09-18T09:23:18.963Z,97300.00
2022-09-18T09:26:13.426Z,97303.00
2022-09-18T09:29:19.255Z,97309.00
2022-09-18T09:32:28.489Z,97312.00
2022-09-18T09:35:32.483Z,97302.00
2022-09-18T09:38:26.037Z,97309.00
2022-09-18T09:40:55.851Z,97306.00
2022-09-18T09:43:41.981Z,97300.00
2022-09-18T09:46:35.136Z,97298.00
2022-09-18T09:49:14.059Z,97300.00
2022-09-18T09:52:14.135Z,97297.00
2022-09-18T09:54:42.570Z,97288.00
2022-09-18T09:57:43.816Z,97288.00
2022-09-18T10:00:19.663Z,97287.00
2022-09-18T10:03:07.850Z,97282.00
2022-09-18T10:06:06.723Z,97265.00
2022-09-18T10:08:46.987Z,97284.00
2022-09-18T10:11:16.402Z,97272.00
2022-09-18T10:14:18.368Z,97290.00
2022-09-18T10:16:56.515Z,97293.00
2022-09-18T10:19:35.206Z,97285.00
2022-09-18T10:22:10.117Z,97281.00
2022-09-18T10:24:42.921Z,97270.00
2022-09-18T10:27:16.370Z,97269.00
2022-09-18T10:29:43.853Z,97267.00
2022-09-18T10:32:37.987Z,97264.00
2022-09-18T10:35:44.851Z,97263.00
2022-09-18T10:38:33.035Z,97256.00
2022-09-18T10:41:38.006Z,97241.00
2022-09-18T10:44:37.310Z,97253.00
2022-09-18T10:47:20.537Z,97258.00
2022-09-18T10:50:06.337Z,97238.00
2022-09-18T10:52:49.494Z,97244.00
2022-09-18T10:55:30.614Z,97243.00
2022-09-18T10:58:13.219Z,97237.00
2022-09-18T11:00:56.620Z,97237.00
2022-09-18T11:03:46.699Z,97246.00
2022-09-18T11:06:25.258Z,97235.00
2022-09-18T11:08:59.040Z,97237.00
2022-09-18T11:11:32.617Z,97249.00
2022-09-18T11:14:17.871Z,97244.00
2022-09-18T11:16:59.762Z,97243.00
2022-09-18T11:19:40.834Z,97252.00
2022-09-18T11:22:41.606Z,97244.00
2022-09-18T11:25:24.247Z,97245.00
2022-09-18T11:28:01.668Z,97237.00
2022-09-18T11:30:39.494Z,97233.00
2022-09-18T11:33:29.729Z,97227.00
2022-09-18T11:36:13.924Z,97236.00
2022-09-18T11:38:47.007Z,97229.00
2022-09-18T11:41:24.689Z,97231.00
2022-09-18T11:44:33.093Z,97231.00
2022-09-18T11:47:31.464Z,97252.00
2022-09-18T11:50:20.547Z,97241.00
2022-09-18T11:53:00.418Z,97249.00
2022-09-18T11:55:43.074Z,97238.00
2022-09-18T11:58:26.266Z,97248.00
2022-09-18T12:01:11.969Z,97277.00
2022-09-18T12:03:49.830Z,97262.00
2022-09-18T12:07:00.988Z,97266.00
2022-09-18T12:09:48.147Z,97243.00
2022-09-18T12:12:28.006Z,97248.00
2022-09-18T12:15:17.332Z,97259.00
2022-09-18T12:18:00.370Z,97241.00
2022-09-18T12:20:45.693Z,97249.00
2022-09-18T12:23:23.314Z,97249.00
2022-09-18T12:26:17.333Z,97255.00
2022-09-18T12:29:04.057Z,97239.00
2022-09-18T12:31:59.720Z,97243.00
2022-09-18T12:34:57.098Z,97254.00
2022-09-18T12:37:41.944Z,97225.00
2022-09-18T12:40:34.009Z,97226.00
2022-09-18T12:43:29.798Z,97232.00
2022-09-18T12:46:53.641Z,97223.00
2022-09-18T12:49:23.219Z,97226.00
2022-09-18T12:52:55.492Z,97230.00
2022-09-18T12:55:58.588Z,97255.00
2022-09-18T12:58:46.693Z,97254.00
2022-09-18T13:01:34.906Z,97244.00
2022-09-18T13:04:34.839Z,97239.00
2022-09-18T13:07:16.543Z,97239.00
2022-09-18T13:10:04.905Z,97243.00
2022-09-18T13:12:44.738Z,97247.00
2022-09-18T13:15:38.328Z,97240.00
2022-09-18T13:18:32.468Z,97240.00
2022-09-18T13:21:05.577Z,97229.00
2022-09-18T13:23:40.639Z,97234.00
2022-09-18T13:26:14.713Z,97230.00
2022-09-18T13:28:43.808Z,97232.00
2022-09-18T13:31:33.422Z,97236.00
2022-09-18T13:34:06.021Z,97222.00
2022-09-18T13:36:40.727Z,97221.00
2022-09-18T13:39:23.619Z,97222.00
2022-09-18T13:41:54.593Z,97226.00
2022-09-18T13:44:38.052Z,97219.00
2022-09-18T13:47:14.739Z,97235.00
2022-09-18T13:49:58.490Z,97231.00
2022-09-18T13:52:45.185Z,97210.00
2022-09-18T13:55:16.153Z,97215.00
2022-09-18T13:57:45.834Z,97205.00
2022-09-18T14:00:21.936Z,97212.00
2022-09-18T14:02:50.764Z,97223.00
2022-09-18T14:05:41.757Z,97227.00
2022-09-18T14:08:36.752Z,97219.00
2022-09-18T14:11:15.419Z,97222.00
2022-09-18T14:13:55.679Z,97214.00
2022-09-18T14:16:28.520Z,97206.00
2022-09-18T14:19:05.911Z,97198.00
2022-09-18T14:21:42.228Z,97204.00
2022-09-18T14:24:36.819Z,97210.00
2022-09-18T14:27:28.250Z,97201.00
2022-09-18T14:29:59.003Z,97211.00
2022-09-18T14:32:27.655Z,97207.00
2022-09-18T14:35:30.308Z,97199.00
2022-09-18T14:37:57.302Z,97196.00
2022-09-18T14:40:27.377Z,97206.00
2022-09-18T14:42:54.675Z,97199.00
2022-09-18T14:45:31.968Z,97208.00
2022-09-18T14:47:59.602Z,97201.00
2022-09-18T14:50:34.946Z,97193.00
2022-09-18T14:53:23.735Z,97197.00
2022-09-18T14:56:11.546Z,97209.00
2022-09-18T14:58:43.635Z,97222.00
2022-09-18T15:01:31.608Z,97224.00
2022-09-18T15:04:02.499Z,97202.00
2022-09-18T15:06:46.609Z,97200.00
2022-09-18T15:09:20.857Z,97195.00
2022-09-18T15:12:01.846Z,97196.00
2022-09-18T15:14:44.134Z,97206.00
2022-09-18T15:17:26.620Z,97211.00
2022-09-18T15:20:15.630Z,97209.00
2022-09-18T15:22:43.683Z,97222.00
2022-09-18T15:25:28.120Z,97214.00
2022-09-18T15:27:59.082Z,97221.00
2022-09-18T15:30:26.019Z,97214.00
2022-09-18T15:33:19.385Z,97214.00
2022-09-18T15:35:51.524Z,97209.00
2022-09-18T15:38:29.579Z,97213.00
2022-09-18T15:40:56.517Z,97237.00
2022-09-18T15:43:35.300Z,97233.00
2022-09-18T15:46:05.218Z,97237.00
2022-09-18T15:48:40.044Z,97231.00
2022-09-18T15:51:14.354Z,97234.00
2022-09-18T15:53:41.819Z,97225.00
2022-09-18T15:56:19.990Z,97235.00
2022-09-18T15:58:55.342Z,97238.00
2022-09-18T16:01:28.721Z,97222.00
2022-09-18T16:04:04.485Z,97232.00
2022-09-18T16:06:42.587Z,97231.00
2022-09-18T16:09:34.494Z,97236.00
2022-09-18T16:12:22.537Z,97237.00
2022-09-18T16:15:18.685Z,97238.00
2022-09-18T16:17:45.432Z,97243.00
2022-09-18T16:20:47.542Z,97252.00
2022-09-18T16:23:30.827Z,97234.00
2022-09-18T16:26:03.547Z,97238.00
2022-09-18T16:28:33.786Z,97243.00
2022-09-18T16:31:00.748Z,97232.00
2022-09-18T16:33:31.333Z,97240.00
2022-09-18T16:36:16.305Z,97229.00
2022-09-18T16:38:43.179Z,97234.00
2022-09-18T16:41:10.222Z,97244.00
2022-09-18T16:43:37.127Z,97223.00
2022-09-18T16:46:04.040Z,97235.00
2022-09-18T16:48:31.423Z,97239.00
2022-09-18T16:50:58.297Z,97225.00
2022-09-18T16:53:25.485Z,97227.00
2022-09-18T16:55:57.364Z,97229.00
2022-09-18T16:58:27.792Z,97215.00
2022-09-18T17:00:54.979Z,97232.00
2022-09-18T17:03:22.132Z,97241.00
2022-09-18T17:05:49.016Z,97246.00
2022-09-18T17:08:16.352Z,97238.00
2022-09-18T17:10:45.158Z,97256.00
2022-09-18T17:13:13.289Z,97247.00
2022-09-18T17:15:40.353Z,97244.00
2022-09-18T17:18:07.241Z,97252.00
2022-09-18T17:20:34.739Z,97267.00
2022-09-18T17:23:01.740Z,97254.00
2022-09-18T17:25:29.475Z,97262.00
2022-09-18T17:27:56.422Z,97262.00
2022-09-18T17:30:23.304Z,97258.00
2022-09-18T17:32:50.197Z,97267.00
2022-09-18T17:35:17.669Z,97273.00
2022-09-18T17:37:44.522Z,97280.00
2022-09-18T17:40:11.718Z,97291.00
2022-09-18T17:42:39.466Z,97279.00
2022-09-18T17:45:07.215Z,97293.00
2022-09-18T17:47:34.281Z,97297.00
2022-09-18T17:50:01.633Z,97294.00
2022-09-18T17:52:28.556Z,97289.00
2022-09-18T17:54:55.343Z,97292.00
2022-09-18T17:57:22.182Z,97304.00
2022-09-18T17:59:49.178Z,97300.00
2022-09-18T18:02:16.830Z,97280.00
2022-09-18T18:04:43.696Z,97287.00
2022-09-18T18:07:10.568Z,97291.00
2022-09-18T18:09:38.319Z,97294.00
2022-09-18T18:12:06.210Z,97289.00
2022-09-18T18:14:34.563Z,97291.00
2022-09-18T18:17:01.896Z,97301.00
2022-09-18T18:19:29.491Z,97288.00
2022-09-18T18:21:56.370Z,97290.00
2022-09-18T18:24:23.313Z,97287.00
2022-09-18T18:26:50.307Z,97301.00
2022-09-18T18:29:19.239Z,97282.00
2022-09-18T18:31:48.135Z,97288.00
2022-09-18T18:34:21.941Z,97281.00
2022-09-18T18:36:50.254Z,97281.00
2022-09-18T18:39:19.804Z,97257.00
2022-09-18T18:41:47.395Z,97248.00
2022-09-18T18:44:14.738Z,97248.00
2022-09-18T18:46:42.531Z,97245.00
2022-09-18T18:49:14.871Z,97245.00
2022-09-18T18:51:47.541Z,97233.00
2022-09-18T18:54:18.998Z,97229.00
2022-09-18T18:56:47.189Z,97243.00
2022-09-18T18:59:17.955Z,97248.00
2022-09-18T19:01:45.912Z,97255.00
2022-09-18T19:04:16.366Z,97253.00
2022-09-18T19:06:44.557Z,97257.00
2022-09-18T19:09:20.522Z,97265.00
2022-09-18T19:11:49.549Z,97255.00
2022-09-18T19:14:20.711Z,97264.00
2022-09-18T19:16:48.974Z,97278.00
2022-09-18T19:19:19.455Z,97293.00
2022-09-18T19:21:48.773Z,97291.00
2022-09-18T19:24:18.531Z,97305.00
2022-09-18T19:26:47.671Z,97308.00
2022-09-18T19:29:18.887Z,97302.00
2022-09-18T19:31:47.677Z,97301.00
2022-09-18T19:34:18.244Z,97296.00
2022-09-18T19:36:47.002Z,97294.00
2022-09-18T19:39:14.959Z,97312.00
2022-09-18T19:42:00.875Z,97301.00
2022-09-18T19:44:50.977Z,97305.00
2022-09-18T19:47:26.610Z,97324.00
2022-09-18T19:49:56.525Z,97310.00
2022-09-18T19:52:29.904Z,97312.00
2022-09-18T19:54:58.765Z,97308.00
2022-09-18T19:57:28.103Z,97321.00
2022-09-18T19:59:56.975Z,97325.00
2022-09-18T20:02:25.351Z,97324.00
2022-09-18T20:04:52.504Z,97331.00
2022-09-18T20:07:19.397Z,97310.00
2022-09-18T20:09:46.243Z,97313.00
2022-09-18T20:12:13.605Z,97323.00
2022-09-18T20:14:40.477Z,97326.00
2022-09-18T20:17:08.227Z,97336.00
2022-09-18T20:19:35.337Z,97338.00
2022-09-18T20:22:03.897Z,97326.00
2022-09-18T20:24:32.140Z,97326.00
2022-09-18T20:27:00.637Z,97343.00
2022-09-18T20:29:27.870Z,97339.00
2022-09-18T20:31:55.069Z,97342.00
2022-09-18T20:34:23.103Z,97343.00
2022-09-18T20:36:52.010Z,97336.00
2022-09-18T20:39:19.513Z,97337.00
2022-09-18T20:41:47.498Z,97337.00
2022-09-18T20:44:14.566Z,97357.00
2022-09-18T20:46:42.721Z,97341.00
2022-09-18T20:49:11.543Z,97347.00
2022-09-18T20:51:38.386Z,97350.00
2022-09-18T20:54:09.290Z,97335.00
2022-09-18T20:56:44.446Z,97334.00
2022-09-18T20:59:16.357Z,97342.00
2022-09-18T21:01:45.419Z,97334.00
2022-09-18T21:04:19.136Z,97326.00
2022-09-18T21:06:55.159Z,97337.00
2022-09-18T21:09:26.182Z,97332.00
2022-09-18T21:11:53.966Z,97337.00
2022-09-18T21:14:20.946Z,97345.00
2022-09-18T21:16:48.919Z,97331.00
2022-09-18T21:19:19.230Z,97352.00
2022-09-18T21:21:48.227Z,97349.00
2022-09-18T21:24:17.270Z,97338.00
2022-09-18T21:26:48.714Z,97332.00
2022-09-18T21:29:17.956Z,97346.00
2022-09-18T21:31:46.632Z,97344.00
2022-09-18T21:34:24.103Z,97343.00
2022-09-18T21:36:56.343Z,97322.00
2022-09-18T21:39:24.637Z,97336.00
2022-09-18T21:41:53.052Z,97326.00
2022-09-18T21:44:27.338Z,97337.00
2022-09-18T21:46:57.095Z,97336.00
2022-09-18T21:49:24.518Z,97338.00
2022-09-18T21:52:02.862Z,97339.00
2022-09-18T21:54:31.799Z,97335.00
2022-09-18T21:56:59.694Z,97316.00
2022-09-18T21:59:32.847Z,97332.00
2022-09-18T22:02:00.851Z,97331.00
2022-09-18T22:04:32.707Z,97333.00
2022-09-18T22:07:01.753Z,97325.00
2022-09-18T22:09:38.075Z,97333.00
2022-09-18T22:12:07.497Z,97346.00
2022-09-18T22:14:35.719Z,97340.00
2022-09-18T22:17:06.349Z,97347.00
2022-09-18T22:19:37.012Z,97343.00
2022-09-18T22:22:06.527Z,97364.00
2022-09-18T22:24:33.430Z,97358.00
2022-09-18T22:27:05.725Z,97361.00
2022-09-18T22:29:35.364Z,97359.00
2022-09-18T22:32:03.004Z,97346.00
2022-09-18T22:34:32.572Z,97372.00
2022-09-18T22:37:00.313Z,97356.00
2022-09-18T22:39:28.559Z,97365.00
2022-09-18T22:41:55.855Z,97359.00
2022-09-18T22:44:23.312Z,97369.00
2022-09-18T22:46:52.597Z,97364.00
2022-09-18T22:49:22.411Z,97374.00
2022-09-18T22:51:50.789Z,97378.00
2022-09-18T22:54:23.625Z,97378.00
2022-09-18T22:56:52.091Z,97368.00
2022-09-18T22:59:22.635Z,97362.00
2022-09-18T23:01:55.257Z,97363.00
2022-09-18T23:04:27.865Z,97378.00
2022-09-18T23:06:56.401Z,97378.00
2022-09-18T23:09:23.360Z,97381.00
2022-09-18T23:11:52.995Z,97378.00
2022-09-18T23:14:27.908Z,97382.00
2022-09-18T23:16:56.211Z,97381.00
2022-09-18T23:19:27.306Z,97387.00
2022-09-18T23:21:55.201Z,97383.00
2022-09-18T23:24:23.022Z,97383.00
2022-09-18T23:26:52.855Z,97382.00
2022-09-18T23:29:25.731Z,97408.00
2022-09-18T23:31:55.683Z,97383.00
2022-09-18T23:34:27.958Z,97391.00
2022-09-18T23:36:56.183Z,97392.00
2022-09-18T23:39:33.817Z,97381.00
2022-09-18T23:42:02.938Z,97394.00
2022-09-18T23:44:31.285Z,97396.00
2022-09-18T23:47:00.364Z,97396.00
2022-09-18T23:49:28.510Z,97404.00
2022-09-18T23:51:56.000Z,97389.00
2022-09-18T23:54:27.253Z,97398.00
2022-09-18T23:56:54.846Z,97404.00
2022-09-18T23:59:24.801Z,97390.00
